Main page
METAR-TAF:

METAR-TAF

Airports :

Weeze, Germany

Weeze Airport

latitude: 51-36-09N, longitude: 006-08-32E, elevation: 32 m

Current weather observation

The report was made 30 minutes ago, at 09:50 UTC
Wind 4 kt from variable directions
Temperature 20°C
Humidity 56%
Pressure 1025 hPa
Visibility 10 km or more
Scattered clouds at a height of 3500 ft

METAR: EDLV 210950Z VRB04KT 9999 SCT035 20/11 Q1025

Time: 12:20 (10:20 UTC)

Forecast

The report was made 5 hours and 20 minutes ago, at 05:00 UTC
Forecast valid from 21 at 06 UTC to 22 at 06 UTC
Wind 3 kt from variable directions
Visibility 10 km or more
Few clouds at a height of 4000 ft

TAF: EDLV 210500Z 2106/2206 VRB03KT 9999 FEW040

Weather observations and forecasts of more than 4000 airports (METAR and TAF reports).

The available stations are represented by yellow and red dots on the map.

Hover mouse over dot to see the name of the station.

Then click to see weather observations and forecasts.

To change the map : click on the green buttons with a black cross to zoom in, on the green button with a dash to zoom out, or on the green arrows for adjacent maps.


METAR-TAF: